createdAt,value
2022-09-15T00:00:49.355Z,16.50
2022-09-15T00:03:16.085Z,16.60
2022-09-15T00:05:42.789Z,16.60
2022-09-15T00:08:09.370Z,16.60
2022-09-15T00:10:36.140Z,16.70
2022-09-15T00:13:02.801Z,16.60
2022-09-15T00:15:29.480Z,16.70
2022-09-15T00:17:56.095Z,16.70
2022-09-15T00:20:22.756Z,16.80
2022-09-15T00:22:49.459Z,16.80
2022-09-15T00:25:16.153Z,16.90
2022-09-15T00:27:42.757Z,16.80
2022-09-15T00:30:09.648Z,16.90
2022-09-15T00:32:36.301Z,16.90
2022-09-15T00:35:04.347Z,16.90
2022-09-15T00:37:31.004Z,16.90
2022-09-15T00:39:57.673Z,16.90
2022-09-15T00:42:24.317Z,16.90
2022-09-15T00:44:55.662Z,17.00
2022-09-15T00:47:24.508Z,17.00
2022-09-15T00:49:58.807Z,17.00
2022-09-15T00:52:32.102Z,17.00
2022-09-15T00:55:02.064Z,17.10
2022-09-15T00:57:31.909Z,17.10
2022-09-15T01:00:00.358Z,17.20
2022-09-15T01:02:28.567Z,17.20
2022-09-15T01:04:58.387Z,17.20
2022-09-15T01:07:45.513Z,17.30
2022-09-15T01:10:17.637Z,17.20
2022-09-15T01:12:44.381Z,17.30
2022-09-15T01:15:11.062Z,17.40
2022-09-15T01:17:47.870Z,17.40
2022-09-15T01:20:33.479Z,17.50
2022-09-15T01:23:00.052Z,17.50
2022-09-15T01:25:38.731Z,17.50
2022-09-15T01:28:24.211Z,17.50
2022-09-15T01:31:03.324Z,17.50
2022-09-15T01:33:37.544Z,17.50
2022-09-15T01:36:13.177Z,17.50
2022-09-15T01:39:01.049Z,17.50
2022-09-15T01:41:29.730Z,17.50
2022-09-15T01:44:03.755Z,17.50
2022-09-15T01:46:31.383Z,17.50
2022-09-15T01:48:59.535Z,17.50
2022-09-15T01:51:26.937Z,17.60
2022-09-15T01:53:54.927Z,17.60
2022-09-15T01:56:21.552Z,17.50
2022-09-15T01:58:49.731Z,17.60
2022-09-15T02:01:20.034Z,17.50
2022-09-15T02:03:55.470Z,17.50
2022-09-15T02:06:43.166Z,17.50
2022-09-15T02:09:14.767Z,17.50
2022-09-15T02:11:50.093Z,17.50
2022-09-15T02:14:21.081Z,17.50
2022-09-15T02:16:49.939Z,17.40
2022-09-15T02:19:21.472Z,17.40
2022-09-15T02:21:57.182Z,17.40
2022-09-15T02:24:29.868Z,17.50
2022-09-15T02:26:57.819Z,17.50
2022-09-15T02:29:26.847Z,17.50
2022-09-15T02:31:55.629Z,17.50
2022-09-15T02:34:25.604Z,17.50
2022-09-15T02:36:53.166Z,17.50
2022-09-15T02:39:22.249Z,17.50
2022-09-15T02:41:49.085Z,17.50
2022-09-15T02:44:15.669Z,17.50
2022-09-15T02:46:43.106Z,17.50
2022-09-15T02:49:09.809Z,17.50
2022-09-15T02:51:36.451Z,17.50
2022-09-15T02:54:03.094Z,17.60
2022-09-15T02:56:29.934Z,17.60
2022-09-15T02:58:56.572Z,17.60
2022-09-15T03:01:26.818Z,17.60
2022-09-15T03:03:53.522Z,17.60
2022-09-15T03:06:21.357Z,17.60
2022-09-15T03:08:58.642Z,17.60
2022-09-15T03:11:26.826Z,17.60
2022-09-15T03:13:54.500Z,17.50
2022-09-15T03:16:21.305Z,17.50
2022-09-15T03:18:48.424Z,17.50
2022-09-15T03:21:15.849Z,17.40
2022-09-15T03:23:42.489Z,17.50
2022-09-15T03:26:10.344Z,17.40
2022-09-15T03:28:38.140Z,17.40
2022-09-15T03:31:05.705Z,17.40
2022-09-15T03:33:32.654Z,17.40
2022-09-15T03:35:59.521Z,17.40
2022-09-15T03:38:26.301Z,17.30
2022-09-15T03:40:59.687Z,17.40
2022-09-15T03:43:27.164Z,17.40
2022-09-15T03:45:54.326Z,17.30
2022-09-15T03:48:20.959Z,17.30
2022-09-15T03:50:47.602Z,17.30
2022-09-15T03:53:14.370Z,17.30
2022-09-15T03:55:41.157Z,17.30
2022-09-15T03:58:07.854Z,17.20
2022-09-15T04:00:34.743Z,17.20
2022-09-15T04:03:01.491Z,17.30
2022-09-15T04:05:28.911Z,17.30
2022-09-15T04:07:55.571Z,17.30
2022-09-15T04:10:24.603Z,17.30
2022-09-15T04:12:52.470Z,17.40
2022-09-15T04:15:20.039Z,17.30
2022-09-15T04:17:47.342Z,17.30
2022-09-15T04:20:14.221Z,17.30
2022-09-15T04:22:40.865Z,17.20
2022-09-15T04:25:09.293Z,17.20
2022-09-15T04:27:36.431Z,17.20
2022-09-15T04:30:03.511Z,17.20
2022-09-15T04:32:30.319Z,17.30
2022-09-15T04:34:56.932Z,17.20
2022-09-15T04:37:23.548Z,17.10
2022-09-15T04:39:50.805Z,17.10
2022-09-15T04:42:17.506Z,17.20
2022-09-15T04:44:44.150Z,17.30
2022-09-15T04:47:10.836Z,17.30
2022-09-15T04:49:37.470Z,17.20
2022-09-15T04:52:08.962Z,17.30
2022-09-15T04:54:36.345Z,17.30
2022-09-15T04:57:03.022Z,17.30
2022-09-15T04:59:29.716Z,17.30
2022-09-15T05:01:56.471Z,17.10
2022-09-15T05:04:23.167Z,17.30
2022-09-15T05:06:49.849Z,17.40
2022-09-15T05:09:16.453Z,17.30
2022-09-15T05:11:43.158Z,17.30
2022-09-15T05:14:10.622Z,17.30
2022-09-15T05:16:37.489Z,17.30
2022-09-15T05:19:04.748Z,17.30
2022-09-15T05:21:31.609Z,17.30
2022-09-15T05:23:58.367Z,17.40
2022-09-15T05:26:26.402Z,17.40
2022-09-15T05:28:53.413Z,17.40
2022-09-15T05:31:21.609Z,17.50
2022-09-15T05:33:49.265Z,17.40
2022-09-15T05:36:17.443Z,17.40
2022-09-15T05:38:44.455Z,17.50
2022-09-15T05:41:12.091Z,17.60
2022-09-15T05:43:39.498Z,17.60
2022-09-15T05:46:06.672Z,17.60
2022-09-15T05:48:33.462Z,17.60
2022-09-15T05:51:00.253Z,17.60
2022-09-15T05:53:27.163Z,17.60
2022-09-15T05:55:56.767Z,17.50
2022-09-15T05:58:23.728Z,17.50
2022-09-15T06:00:50.786Z,17.50
2022-09-15T06:03:17.450Z,17.60
2022-09-15T06:05:44.081Z,17.60
2022-09-15T06:08:11.140Z,17.60
2022-09-15T06:10:37.894Z,17.50
2022-09-15T06:13:04.739Z,17.60
2022-09-15T06:15:31.999Z,17.60
2022-09-15T06:17:58.717Z,17.60
2022-09-15T06:20:25.598Z,17.70
2022-09-15T06:22:53.297Z,17.60
2022-09-15T06:25:19.939Z,17.60
2022-09-15T06:27:49.020Z,17.90
2022-09-15T06:30:15.870Z,17.70
2022-09-15T06:32:47.383Z,17.70
2022-09-15T06:35:15.213Z,17.70
2022-09-15T06:37:41.821Z,17.70
2022-09-15T06:40:08.930Z,17.80
2022-09-15T06:42:35.697Z,17.90
2022-09-15T06:45:02.366Z,18.00
2022-09-15T06:47:33.836Z,17.90
2022-09-15T06:50:00.813Z,18.00
2022-09-15T06:52:27.730Z,18.20
2022-09-15T06:54:54.424Z,18.40
2022-09-15T06:57:21.098Z,18.40
2022-09-15T06:59:47.856Z,18.30
2022-09-15T07:02:14.587Z,18.20
2022-09-15T07:04:41.350Z,18.20
2022-09-15T07:07:08.056Z,18.10
2022-09-15T07:09:34.698Z,18.00
2022-09-15T07:12:01.631Z,17.90
2022-09-15T07:14:28.355Z,17.90
2022-09-15T07:16:55.046Z,17.90
2022-09-15T07:19:21.812Z,18.20
2022-09-15T07:21:48.520Z,18.00
2022-09-15T07:24:15.313Z,18.10
2022-09-15T07:26:42.079Z,18.10
2022-09-15T07:29:09.692Z,18.20
2022-09-15T07:31:37.765Z,18.20
2022-09-15T07:34:05.061Z,18.30
2022-09-15T07:36:32.008Z,18.30
2022-09-15T07:38:58.683Z,18.40
2022-09-15T07:41:26.858Z,18.30
2022-09-15T07:43:54.560Z,18.20
2022-09-15T07:46:22.020Z,18.00
2022-09-15T07:48:49.512Z,18.00
2022-09-15T07:51:16.572Z,18.10
2022-09-15T07:53:44.541Z,18.10
2022-09-15T07:56:11.403Z,18.00
2022-09-15T07:58:37.981Z,18.00
2022-09-15T08:01:05.907Z,18.00
2022-09-15T08:03:32.839Z,18.20
2022-09-15T08:05:59.882Z,18.20
2022-09-15T08:08:26.602Z,18.30
2022-09-15T08:10:53.416Z,18.50
2022-09-15T08:13:20.137Z,18.80
2022-09-15T08:15:47.257Z,18.80
2022-09-15T08:18:14.472Z,19.00
2022-09-15T08:20:41.715Z,19.10
2022-09-15T08:23:08.436Z,19.30
2022-09-15T08:25:35.216Z,19.20
2022-09-15T08:28:02.024Z,19.20
2022-09-15T08:30:28.610Z,19.40
2022-09-15T08:32:55.284Z,19.20
2022-09-15T08:35:21.936Z,19.40
2022-09-15T08:37:48.603Z,19.50
2022-09-15T08:40:20.903Z,19.60
2022-09-15T08:42:50.461Z,19.50
2022-09-15T08:45:20.509Z,19.40
2022-09-15T08:47:47.827Z,19.30
2022-09-15T08:50:40.612Z,19.30
2022-09-15T08:53:33.403Z,19.20
2022-09-15T08:56:00.588Z,19.20
2022-09-15T08:58:29.621Z,19.30
2022-09-15T09:01:02.752Z,19.10
2022-09-15T09:03:35.353Z,19.20
2022-09-15T09:06:37.442Z,19.10
2022-09-15T09:09:22.607Z,19.20
2022-09-15T09:12:02.501Z,19.20
2022-09-15T09:14:35.886Z,19.30
2022-09-15T09:17:21.100Z,19.40
2022-09-15T09:20:02.904Z,19.50
2022-09-15T09:22:34.458Z,19.90
2022-09-15T09:25:11.496Z,20.10
2022-09-15T09:27:43.393Z,20.40
2022-09-15T09:30:15.562Z,20.40
2022-09-15T09:32:46.360Z,20.50
2022-09-15T09:35:18.812Z,20.30
2022-09-15T09:37:45.540Z,20.20
2022-09-15T09:40:13.659Z,20.10
2022-09-15T09:42:40.551Z,20.10
2022-09-15T09:45:07.701Z,20.00
2022-09-15T09:47:36.322Z,19.90
2022-09-15T09:50:03.049Z,20.00
2022-09-15T09:52:37.072Z,20.20
2022-09-15T09:55:24.189Z,20.20
2022-09-15T09:57:51.282Z,20.00
2022-09-15T10:00:38.150Z,19.70
2022-09-15T10:03:11.711Z,19.90
2022-09-15T10:05:38.519Z,20.20
2022-09-15T10:08:05.176Z,20.50
2022-09-15T10:10:34.543Z,21.00
2022-09-15T10:13:02.531Z,22.20
2022-09-15T10:15:31.966Z,23.70
2022-09-15T10:17:58.647Z,24.60
2022-09-15T10:20:32.978Z,24.70
2022-09-15T10:23:03.870Z,23.90
2022-09-15T10:25:44.536Z,23.60
2022-09-15T10:28:17.752Z,23.50
2022-09-15T10:31:01.226Z,23.10
2022-09-15T10:33:29.742Z,22.90
2022-09-15T10:36:00.993Z,23.00
2022-09-15T10:38:34.172Z,22.80
2022-09-15T10:41:19.612Z,22.60
2022-09-15T10:44:02.053Z,22.10
2022-09-15T10:46:37.583Z,22.20
2022-09-15T10:49:32.005Z,22.40
2022-09-15T10:52:17.162Z,22.40
2022-09-15T10:54:43.827Z,22.60
2022-09-15T10:57:13.412Z,23.10
2022-09-15T10:59:52.793Z,23.00
2022-09-15T11:02:25.451Z,23.10
2022-09-15T11:04:55.240Z,22.90
2022-09-15T11:07:31.779Z,22.50
2022-09-15T11:10:17.129Z,21.80
2022-09-15T11:12:52.799Z,21.20
2022-09-15T11:15:31.554Z,20.90
2022-09-15T11:18:12.860Z,20.50
2022-09-15T11:20:39.498Z,20.10
2022-09-15T11:23:12.165Z,19.50
2022-09-15T11:25:41.980Z,19.10
2022-09-15T11:28:18.642Z,19.00
2022-09-15T11:30:50.229Z,19.00
2022-09-15T11:33:20.181Z,19.00
2022-09-15T11:35:53.777Z,18.80
2022-09-15T11:38:30.856Z,18.70
2022-09-15T11:41:23.923Z,18.80
2022-09-15T11:44:06.196Z,18.80
2022-09-15T11:46:51.832Z,18.50
2022-09-15T11:49:27.652Z,18.50
2022-09-15T11:51:58.355Z,18.20
2022-09-15T11:54:48.055Z,18.20
2022-09-15T11:57:17.142Z,18.10
2022-09-15T12:00:03.831Z,18.10
2022-09-15T12:02:33.065Z,18.10
2022-09-15T12:05:29.050Z,18.00
2022-09-15T12:07:58.293Z,18.10
2022-09-15T12:10:28.371Z,18.10
2022-09-15T12:12:55.733Z,18.20
2022-09-15T12:15:27.322Z,18.30
2022-09-15T12:18:06.740Z,18.20
2022-09-15T12:21:11.591Z,17.90
2022-09-15T12:23:56.324Z,17.70
2022-09-15T12:26:24.010Z,17.70
2022-09-15T12:28:54.621Z,17.70
2022-09-15T12:31:32.291Z,17.60
2022-09-15T12:34:03.639Z,17.70
2022-09-15T12:36:41.510Z,17.70
2022-09-15T12:39:27.002Z,17.80
2022-09-15T12:42:04.716Z,17.70
2022-09-15T12:44:34.409Z,17.70
2022-09-15T12:47:02.235Z,17.60
2022-09-15T12:49:36.921Z,17.60
2022-09-15T12:52:05.507Z,17.40
2022-09-15T12:54:33.175Z,17.20
2022-09-15T12:57:00.383Z,17.20
2022-09-15T12:59:28.145Z,17.00
2022-09-15T13:01:55.360Z,17.20
2022-09-15T13:04:45.248Z,17.20
2022-09-15T13:07:14.832Z,17.00
2022-09-15T13:10:00.232Z,16.70
2022-09-15T13:12:30.607Z,16.80
2022-09-15T13:14:59.893Z,16.90
2022-09-15T13:17:27.218Z,17.00
2022-09-15T13:19:56.271Z,16.90
2022-09-15T13:22:27.122Z,17.00
2022-09-15T13:24:57.651Z,17.10
2022-09-15T13:27:48.174Z,17.10
2022-09-15T13:30:21.207Z,17.00
2022-09-15T13:33:06.025Z,16.90
2022-09-15T13:35:51.634Z,17.00
2022-09-15T13:38:31.691Z,17.00
2022-09-15T13:41:14.230Z,17.10
2022-09-15T13:43:56.241Z,17.00
2022-09-15T13:46:41.700Z,17.20
2022-09-15T13:49:14.231Z,17.20
2022-09-15T13:51:43.313Z,17.20
2022-09-15T13:54:18.880Z,17.20
2022-09-15T13:56:47.349Z,17.10
2022-09-15T13:59:24.164Z,17.10
2022-09-15T14:01:52.793Z,17.00
2022-09-15T14:04:24.515Z,17.00
2022-09-15T14:06:58.547Z,16.90
2022-09-15T14:09:27.584Z,16.90
2022-09-15T14:11:55.807Z,16.70
2022-09-15T14:14:25.303Z,16.80
2022-09-15T14:16:52.593Z,17.00
2022-09-15T14:19:31.264Z,17.10
2022-09-15T14:21:58.770Z,17.20
2022-09-15T14:24:27.265Z,17.10
2022-09-15T14:26:54.337Z,17.20
2022-09-15T14:29:21.937Z,17.40
2022-09-15T14:31:48.983Z,17.50
2022-09-15T14:34:20.690Z,17.80
2022-09-15T14:36:55.896Z,18.00
2022-09-15T14:39:22.640Z,18.00
2022-09-15T14:41:50.119Z,18.00
2022-09-15T14:45:56.013Z,17.90
2022-09-15T14:47:19.988Z,18.00
2022-09-15T14:49:47.224Z,18.00
2022-09-15T14:52:23.208Z,18.10
2022-09-15T14:54:50.231Z,18.20
2022-09-15T14:57:20.301Z,18.30
2022-09-15T14:59:51.230Z,18.10
2022-09-15T15:02:17.835Z,18.10
2022-09-15T15:04:46.945Z,18.20
2022-09-15T15:07:24.809Z,18.40
2022-09-15T15:10:01.872Z,18.50
2022-09-15T15:12:36.138Z,18.60
2022-09-15T15:15:04.051Z,18.70
2022-09-15T15:17:33.489Z,18.60
2022-09-15T15:20:06.163Z,18.40
2022-09-15T15:22:32.803Z,18.20
2022-09-15T15:24:59.718Z,18.20
2022-09-15T15:27:32.075Z,18.00
2022-09-15T15:30:17.304Z,18.10
2022-09-15T15:32:43.937Z,18.10
2022-09-15T15:35:14.426Z,18.20
2022-09-15T15:37:41.173Z,18.10
2022-09-15T15:40:14.171Z,18.10
2022-09-15T15:42:57.727Z,18.10
2022-09-15T15:45:28.269Z,18.30
2022-09-15T15:47:54.979Z,18.30
2022-09-15T15:50:23.211Z,18.30
2022-09-15T15:52:50.422Z,18.10
2022-09-15T15:55:21.530Z,18.00
2022-09-15T15:57:50.167Z,18.10
2022-09-15T16:00:30.458Z,18.10
2022-09-15T16:02:57.282Z,18.10
2022-09-15T16:05:26.406Z,18.00
2022-09-15T16:07:54.565Z,17.80
2022-09-15T16:10:22.603Z,17.90
2022-09-15T16:12:49.455Z,18.00
2022-09-15T16:15:20.063Z,17.80
2022-09-15T16:17:47.365Z,17.90
2022-09-15T16:20:15.930Z,18.00
2022-09-15T16:22:42.963Z,18.00
2022-09-15T16:25:14.298Z,18.00
2022-09-15T16:27:40.971Z,18.00
2022-09-15T16:30:08.442Z,17.90
2022-09-15T16:32:35.294Z,17.80
2022-09-15T16:35:02.254Z,17.80
2022-09-15T16:37:28.890Z,17.80
2022-09-15T16:39:56.023Z,17.70
2022-09-15T16:42:22.721Z,17.70
2022-09-15T16:44:49.378Z,17.50
2022-09-15T16:47:16.032Z,17.60
2022-09-15T16:49:42.758Z,17.50
2022-09-15T16:52:12.639Z,17.30
2022-09-15T16:54:39.425Z,17.30
2022-09-15T16:57:06.095Z,17.10
2022-09-15T16:59:32.800Z,17.10
2022-09-15T17:01:59.497Z,17.00
2022-09-15T17:04:26.278Z,17.00
2022-09-15T17:06:52.932Z,16.80
2022-09-15T17:09:19.557Z,16.70
2022-09-15T17:11:46.152Z,16.60
2022-09-15T17:14:14.490Z,16.50
2022-09-15T17:16:41.105Z,16.30
2022-09-15T17:19:07.695Z,16.30
2022-09-15T17:21:34.467Z,16.20
2022-09-15T17:24:01.137Z,16.00
2022-09-15T17:26:31.294Z,15.90
2022-09-15T17:28:58.862Z,15.80
2022-09-15T17:31:25.889Z,15.70
2022-09-15T17:33:52.759Z,15.50
2022-09-15T17:36:21.228Z,15.50
2022-09-15T17:38:48.975Z,15.40
2022-09-15T17:41:17.071Z,15.30
2022-09-15T17:43:43.854Z,15.30
2022-09-15T17:46:10.670Z,15.20
2022-09-15T17:48:38.938Z,15.10
2022-09-15T17:51:06.160Z,15.00
2022-09-15T17:53:32.794Z,15.00
2022-09-15T17:55:59.482Z,14.90
2022-09-15T17:58:31.309Z,14.90
2022-09-15T18:00:58.202Z,14.90
2022-09-15T18:03:28.826Z,15.10
2022-09-15T18:05:56.814Z,14.80
2022-09-15T18:08:23.466Z,14.80
2022-09-15T18:10:50.611Z,14.80
2022-09-15T18:13:19.616Z,14.90
2022-09-15T18:15:46.970Z,14.70
2022-09-15T18:18:14.972Z,14.90
2022-09-15T18:20:42.073Z,14.90
2022-09-15T18:23:11.943Z,14.90
2022-09-15T18:25:38.576Z,15.00
2022-09-15T18:28:05.434Z,14.90
2022-09-15T18:30:33.788Z,15.00
2022-09-15T18:33:00.661Z,15.00
2022-09-15T18:35:27.350Z,15.10
2022-09-15T18:37:55.657Z,15.10
2022-09-15T18:40:22.732Z,15.10
2022-09-15T18:42:49.581Z,15.10
2022-09-15T18:45:17.421Z,15.10
2022-09-15T18:47:46.788Z,15.10
2022-09-15T18:50:13.575Z,15.10
2022-09-15T18:52:40.983Z,15.10
2022-09-15T18:55:08.946Z,15.10
2022-09-15T18:57:36.368Z,15.00
2022-09-15T19:00:08.807Z,15.10
2022-09-15T19:02:35.631Z,15.10
2022-09-15T19:05:02.393Z,15.00
2022-09-15T19:07:29.097Z,15.10
2022-09-15T19:09:56.834Z,15.10
2022-09-15T19:12:23.674Z,15.10
2022-09-15T19:14:50.387Z,15.10
2022-09-15T19:17:17.045Z,15.20
2022-09-15T19:19:43.961Z,15.20
2022-09-15T19:22:10.538Z,15.20
2022-09-15T19:24:37.498Z,15.20
2022-09-15T19:27:05.048Z,15.30
2022-09-15T19:29:34.735Z,15.30
2022-09-15T19:32:05.659Z,15.20
2022-09-15T19:34:32.412Z,15.20
2022-09-15T19:36:59.042Z,15.10
2022-09-15T19:39:25.753Z,15.20
2022-09-15T19:41:52.511Z,15.10
2022-09-15T19:44:19.164Z,15.20
2022-09-15T19:46:46.175Z,15.10
2022-09-15T19:49:12.986Z,15.10
2022-09-15T19:51:39.720Z,15.10
2022-09-15T19:54:06.954Z,15.10
2022-09-15T19:56:34.346Z,15.00
2022-09-15T19:59:01.077Z,15.10
2022-09-15T20:01:28.730Z,15.00
2022-09-15T20:03:56.475Z,14.90
2022-09-15T20:06:23.712Z,14.80
2022-09-15T20:08:54.302Z,14.80
2022-09-15T20:11:21.056Z,14.80
2022-09-15T20:13:48.173Z,14.70
2022-09-15T20:16:16.959Z,14.70
2022-09-15T20:18:46.646Z,14.70
2022-09-15T20:21:22.179Z,14.70
2022-09-15T20:24:01.560Z,14.70
2022-09-15T20:26:28.812Z,14.70
2022-09-15T20:28:55.548Z,14.60
2022-09-15T20:31:23.792Z,14.60
2022-09-15T20:33:50.946Z,14.50
2022-09-15T20:36:19.269Z,14.40
2022-09-15T20:38:46.639Z,14.40
2022-09-15T20:41:13.981Z,14.30
2022-09-15T20:43:41.158Z,14.30
2022-09-15T20:46:08.965Z,14.20
2022-09-15T20:48:37.615Z,14.10
2022-09-15T20:51:05.900Z,14.10
2022-09-15T20:53:33.078Z,14.00
2022-09-15T20:55:59.927Z,13.90
2022-09-15T20:58:26.590Z,13.80
2022-09-15T21:01:02.176Z,13.70
2022-09-15T21:03:28.858Z,13.70
2022-09-15T21:05:59.473Z,13.60
2022-09-15T21:08:26.353Z,13.50
2022-09-15T21:10:54.132Z,13.40
2022-09-15T21:13:21.688Z,13.30
2022-09-15T21:15:52.049Z,13.30
2022-09-15T21:18:18.704Z,13.20
2022-09-15T21:20:45.338Z,13.20
2022-09-15T21:23:12.414Z,13.10
2022-09-15T21:25:39.104Z,13.00
2022-09-15T21:28:06.397Z,13.00
2022-09-15T21:30:32.987Z,12.90
2022-09-15T21:33:00.479Z,12.90
2022-09-15T21:35:27.141Z,12.80
2022-09-15T21:37:56.544Z,12.80
2022-09-15T21:40:25.549Z,12.70
2022-09-15T21:42:52.229Z,12.60
2022-09-15T21:45:18.796Z,12.60
2022-09-15T21:47:45.468Z,12.60
2022-09-15T21:50:12.078Z,12.50
2022-09-15T21:52:39.189Z,12.50
2022-09-15T21:55:06.604Z,12.40
2022-09-15T21:57:33.230Z,12.40
2022-09-15T21:59:59.816Z,12.30
2022-09-15T22:02:26.686Z,12.30
2022-09-15T22:04:53.399Z,12.20
2022-09-15T22:07:20.058Z,12.20
2022-09-15T22:09:47.061Z,12.20
2022-09-15T22:12:13.709Z,12.10
2022-09-15T22:14:40.378Z,12.10
2022-09-15T22:17:07.029Z,12.10
2022-09-15T22:19:33.632Z,12.00
2022-09-15T22:22:00.237Z,12.00
2022-09-15T22:24:26.970Z,12.00
2022-09-15T22:26:53.609Z,11.90
2022-09-15T22:29:20.329Z,11.90
2022-09-15T22:31:47.179Z,11.90
2022-09-15T22:34:13.823Z,11.80
2022-09-15T22:36:40.440Z,11.80
2022-09-15T22:39:07.068Z,11.80
2022-09-15T22:41:34.977Z,11.80
2022-09-15T22:44:02.352Z,11.70
2022-09-15T22:46:29.037Z,11.80
2022-09-15T22:48:55.651Z,11.80
2022-09-15T22:51:22.374Z,11.70
2022-09-15T22:53:52.274Z,11.70
2022-09-15T22:56:19.860Z,11.70
2022-09-15T22:58:47.531Z,11.70
2022-09-15T23:01:15.849Z,11.70
2022-09-15T23:03:43.768Z,11.70
2022-09-15T23:06:10.564Z,11.70
2022-09-15T23:08:37.390Z,11.70
2022-09-15T23:11:06.029Z,11.70
2022-09-15T23:13:33.168Z,11.70
2022-09-15T23:15:59.850Z,11.60
2022-09-15T23:18:29.989Z,11.70
2022-09-15T23:20:57.823Z,11.70
2022-09-15T23:23:24.570Z,11.80
2022-09-15T23:25:54.248Z,11.80
2022-09-15T23:28:24.126Z,11.90
2022-09-15T23:30:51.739Z,11.90
2022-09-15T23:33:18.589Z,12.00
2022-09-15T23:35:45.442Z,12.00
2022-09-15T23:38:12.209Z,12.00
2022-09-15T23:40:40.481Z,12.10
2022-09-15T23:43:07.118Z,12.10
2022-09-15T23:45:33.720Z,12.10
2022-09-15T23:48:00.337Z,12.00
2022-09-15T23:50:29.048Z,12.10
2022-09-15T23:52:55.674Z,12.10
2022-09-15T23:55:22.955Z,12.20
2022-09-15T23:57:49.702Z,12.20
